AAL92 KPHL-LSZH
Flight info
| Callsign | AAL92 |
|---|---|
| Flight time | N/A |
| Altitude | 17000 |
| Route | DITCH T416 JIMEE/N0492F390 DCT WAVEY DCT SHLEP DCT YAHOO DCT KANNI N421B ELSIR/M085F400 DCT 50N050W 52N040W 53N030W 53N020W DCT LIMRI DCT XETBO/M085F410 DCT ARKIL/N0486F410 DCT LIZAD DCT JSY DCT TURDU DCT TADUP DCT TEPRI UN491 POGZI DCT MANAG DCT PEVIT DCT BLM |
| Aircraft | B788/H-SDE1E2E3FGHIJ2J3J4J5M1RWXY/LB1D1 |
Departure
| Time | 2026-05-08 06:42 |
|---|---|
| Airport | Philadelphia International Airport (KPHL) |
Arrival
| Time | N/A |
|---|---|
| Airport | Zürich Airport (LSZH) |
| Time | Latitude | Longitude | Altitude | Speed | Heading |
|---|---|---|---|---|---|
| 2026-05-08 06:10 | 39.87334 | -75.24815 | 31 ft | 0 kts | 93° |
| 2026-05-08 06:31 | 39.87334 | -75.24834 | 29 ft | 4 kts | 86° |
| 2026-05-08 06:32 | 39.87330 | -75.24868 | 28 ft | 4 kts | 82° |
| 2026-05-08 06:32 | 39.87333 | -75.24893 | 28 ft | 4 kts | 111° |
| 2026-05-08 06:32 | 39.87347 | -75.24921 | 27 ft | 4 kts | 136° |
| 2026-05-08 06:32 | 39.87367 | -75.24940 | 30 ft | 2 kts | 147° |
| 2026-05-08 06:33 | 39.87368 | -75.24940 | 30 ft | 0 kts | 147° |
| 2026-05-08 06:35 | 39.87366 | -75.24939 | 30 ft | 1 kts | 147° |
| 2026-05-08 06:35 | 39.87358 | -75.24932 | 28 ft | 2 kts | 147° |
| 2026-05-08 06:35 | 39.87345 | -75.24921 | 31 ft | 3 kts | 148° |
| 2026-05-08 06:36 | 39.87327 | -75.24907 | 29 ft | 3 kts | 152° |
| 2026-05-08 06:36 | 39.87308 | -75.24898 | 30 ft | 3 kts | 165° |
| 2026-05-08 06:36 | 39.87279 | -75.24890 | 31 ft | 6 kts | 167° |
| 2026-05-08 06:36 | 39.87225 | -75.24873 | 31 ft | 10 kts | 167° |
| 2026-05-08 06:37 | 39.87152 | -75.24842 | 31 ft | 12 kts | 136° |
| 2026-05-08 06:37 | 39.87147 | -75.24736 | 31 ft | 14 kts | 75° |
| 2026-05-08 06:37 | 39.87174 | -75.24600 | 31 ft | 17 kts | 75° |
| 2026-05-08 06:37 | 39.87208 | -75.24433 | 31 ft | 21 kts | 75° |
| 2026-05-08 06:38 | 39.87248 | -75.24237 | 31 ft | 23 kts | 75° |
| 2026-05-08 06:38 | 39.87290 | -75.24027 | 30 ft | 25 kts | 75° |
| 2026-05-08 06:38 | 39.87336 | -75.23805 | 31 ft | 26 kts | 76° |
| 2026-05-08 06:38 | 39.87381 | -75.23574 | 31 ft | 27 kts | 75° |
| 2026-05-08 06:39 | 39.87429 | -75.23328 | 31 ft | 29 kts | 75° |
| 2026-05-08 06:39 | 39.87482 | -75.23066 | 31 ft | 30 kts | 75° |
| 2026-05-08 06:39 | 39.87535 | -75.22801 | 31 ft | 30 kts | 75° |
| 2026-05-08 06:39 | 39.87584 | -75.22557 | 31 ft | 21 kts | 75° |
| 2026-05-08 06:40 | 39.87590 | -75.22394 | 30 ft | 14 kts | 114° |
| 2026-05-08 06:40 | 39.87540 | -75.22331 | 31 ft | 5 kts | 169° |
| 2026-05-08 06:40 | 39.87527 | -75.22334 | 31 ft | 1 kts | 218° |
| 2026-05-08 06:40 | 39.87512 | -75.22364 | 31 ft | 8 kts | 247° |
| 2026-05-08 06:41 | 39.87479 | -75.22532 | 31 ft | 40 kts | 256° |
| 2026-05-08 06:41 | 39.87360 | -75.23133 | 31 ft | 97 kts | 256° |
| 2026-05-08 06:41 | 39.87140 | -75.24205 | 32 ft | 147 kts | 255° |
| 2026-05-08 06:41 | 39.86860 | -75.25608 | 296 ft | 166 kts | 260° |
| 2026-05-08 06:42 | 39.86617 | -75.27117 | 854 ft | 174 kts | 262° |
| 2026-05-08 06:42 | 39.86231 | -75.28659 | 1488 ft | 185 kts | 250° |
| 2026-05-08 06:42 | 39.85536 | -75.30120 | 2140 ft | 197 kts | 243° |
| 2026-05-08 06:42 | 39.84743 | -75.31593 | 2837 ft | 206 kts | 239° |
| 2026-05-08 06:43 | 39.83862 | -75.33179 | 3320 ft | 224 kts | 239° |
| 2026-05-08 06:43 | 39.82949 | -75.34861 | 4030 ft | 231 kts | 239° |
| 2026-05-08 06:43 | 39.82013 | -75.36602 | 4669 ft | 245 kts | 238° |
| 2026-05-08 06:43 | 39.80902 | -75.38393 | 5230 ft | 258 kts | 233° |
| 2026-05-08 06:44 | 39.79712 | -75.40198 | 6083 ft | 261 kts | 232° |
| 2026-05-08 06:44 | 39.78211 | -75.41475 | 6879 ft | 272 kts | 198° |
| 2026-05-08 06:44 | 39.76272 | -75.41377 | 7683 ft | 286 kts | 165° |
| 2026-05-08 06:44 | 39.74499 | -75.40204 | 8403 ft | 295 kts | 152° |
| 2026-05-08 06:45 | 39.72774 | -75.38707 | 9140 ft | 300 kts | 149° |
| 2026-05-08 06:45 | 39.71057 | -75.37121 | 9860 ft | 304 kts | 148° |
| 2026-05-08 06:45 | 39.69583 | -75.35078 | 10374 ft | 321 kts | 120° |
| 2026-05-08 06:45 | 39.69014 | -75.32200 | 10670 ft | 342 kts | 89° |
| 2026-05-08 06:46 | 39.69368 | -75.29070 | 10874 ft | 360 kts | 75° |
| 2026-05-08 06:46 | 39.70034 | -75.25860 | 11111 ft | 377 kts | 72° |
| 2026-05-08 06:46 | 39.70685 | -75.22578 | 11589 ft | 385 kts | 75° |
| 2026-05-08 06:46 | 39.71247 | -75.19135 | 12156 ft | 392 kts | 77° |
| 2026-05-08 06:47 | 39.71811 | -75.15646 | 12716 ft | 397 kts | 76° |
| 2026-05-08 06:47 | 39.72433 | -75.12130 | 13307 ft | 402 kts | 75° |
| 2026-05-08 06:47 | 39.73073 | -75.08571 | 13844 ft | 408 kts | 75° |
| 2026-05-08 06:47 | 39.73697 | -75.04948 | 14312 ft | 414 kts | 76° |
| 2026-05-08 06:48 | 39.74320 | -75.01268 | 14779 ft | 420 kts | 76° |
| 2026-05-08 06:48 | 39.74962 | -74.97534 | 15243 ft | 426 kts | 76° |
| 2026-05-08 06:48 | 39.75619 | -74.93750 | 15711 ft | 432 kts | 76° |
| 2026-05-08 06:48 | 39.76279 | -74.89910 | 16173 ft | 438 kts | 76° |
| 2026-05-08 06:49 | 39.76939 | -74.86032 | 16642 ft | 443 kts | 77° |
| 2026-05-08 06:49 | 39.77610 | -74.82094 | 17103 ft | 449 kts | 77° |
| 2026-05-08 06:49 | 39.78293 | -74.78100 | 17561 ft | 454 kts | 77° |
| 2026-05-08 06:49 | 39.78978 | -74.74075 | 18016 ft | 459 kts | 77° |
| 2026-05-08 06:50 | 39.79536 | -74.70020 | 18415 ft | 464 kts | 85° |
| 2026-05-08 06:50 | 39.79867 | -74.65825 | 18794 ft | 468 kts | 84° |
| 2026-05-08 06:50 | 39.80449 | -74.58863 | 19434 ft | 475 kts | 84° |
| 2026-05-08 06:50 | 39.81157 | -74.50260 | 20230 ft | 483 kts | 84° |
| 2026-05-08 06:51 | 39.81777 | -74.41487 | 21000 ft | 489 kts | 90° |
| 2026-05-08 06:51 | 39.81710 | -74.32572 | 21719 ft | 496 kts | 93° |
| 2026-05-08 06:51 | 39.81723 | -74.23535 | 22449 ft | 503 kts | 91° |
| 2026-05-08 06:51 | 39.82878 | -74.14552 | 23196 ft | 508 kts | 65° |
| 2026-05-08 06:52 | 39.86480 | -74.06744 | 23761 ft | 506 kts | 48° |
| 2026-05-08 06:52 | 39.90473 | -73.99609 | 24258 ft | 511 kts | 49° |
| 2026-05-08 06:52 | 39.94647 | -73.92017 | 24847 ft | 515 kts | 49° |
| 2026-05-08 06:52 | 39.98852 | -73.84424 | 25402 ft | 519 kts | 49° |
| 2026-05-08 06:53 | 40.03071 | -73.76743 | 25971 ft | 524 kts | 49° |
| 2026-05-08 06:53 | 40.07336 | -73.68983 | 26496 ft | 529 kts | 49° |
| 2026-05-08 06:53 | 40.11580 | -73.61229 | 27048 ft | 532 kts | 49° |
| 2026-05-08 06:53 | 40.15901 | -73.53325 | 27625 ft | 535 kts | 49° |
| 2026-05-08 06:54 | 40.20241 | -73.45361 | 28204 ft | 540 kts | 49° |
| 2026-05-08 06:54 | 40.24647 | -73.37356 | 28711 ft | 543 kts | 47° |
| 2026-05-08 06:54 | 40.29231 | -73.29426 | 29245 ft | 548 kts | 47° |
| 2026-05-08 06:54 | 40.33801 | -73.21433 | 29876 ft | 551 kts | 47° |
| 2026-05-08 06:55 | 40.38439 | -73.13348 | 30315 ft | 556 kts | 47° |
| 2026-05-08 06:55 | 40.43104 | -73.05161 | 30772 ft | 561 kts | 48° |
| 2026-05-08 06:55 | 40.47785 | -72.96945 | 31240 ft | 564 kts | 48° |
| 2026-05-08 06:55 | 40.52479 | -72.88675 | 31719 ft | 568 kts | 49° |
| 2026-05-08 06:56 | 40.57236 | -72.80275 | 32185 ft | 571 kts | 49° |
| 2026-05-08 06:56 | 40.61982 | -72.71870 | 32630 ft | 575 kts | 49° |
| 2026-05-08 06:56 | 40.66687 | -72.63296 | 33137 ft | 581 kts | 57° |
| 2026-05-08 06:56 | 40.69602 | -72.53353 | 33744 ft | 584 kts | 80° |
| 2026-05-08 06:57 | 40.71006 | -72.42792 | 34219 ft | 584 kts | 80° |
| 2026-05-08 06:57 | 40.72619 | -72.32309 | 34693 ft | 584 kts | 79° |
| 2026-05-08 06:57 | 40.74090 | -72.21803 | 35147 ft | 584 kts | 80° |
| 2026-05-08 06:57 | 40.75628 | -72.11265 | 35626 ft | 584 kts | 79° |
| 2026-05-08 06:58 | 40.77123 | -72.00722 | 36101 ft | 584 kts | 80° |
| 2026-05-08 06:58 | 40.78595 | -71.90342 | 36547 ft | 584 kts | 80° |
| 2026-05-08 06:58 | 40.80080 | -71.79815 | 37046 ft | 583 kts | 81° |
| 2026-05-08 06:58 | 40.81549 | -71.69275 | 37488 ft | 584 kts | 81° |
| 2026-05-08 06:59 | 40.83015 | -71.58741 | 37934 ft | 584 kts | 81° |
| 2026-05-08 06:59 | 40.84469 | -71.48167 | 38340 ft | 583 kts | 81° |
| 2026-05-08 06:59 | 40.85914 | -71.37629 | 38733 ft | 583 kts | 81° |
| 2026-05-08 06:59 | 40.87348 | -71.27060 | 38885 ft | 586 kts | 81° |
| 2026-05-08 07:00 | 40.90174 | -71.06037 | 38882 ft | 580 kts | 82° |
| 2026-05-08 07:00 | 40.92954 | -70.85067 | 38857 ft | 577 kts | 82° |
| 2026-05-08 07:01 | 40.95686 | -70.64153 | 38867 ft | 577 kts | 82° |
| 2026-05-08 07:01 | 40.98374 | -70.43262 | 38858 ft | 576 kts | 83° |
| 2026-05-08 07:02 | 41.01027 | -70.22333 | 38849 ft | 576 kts | 83° |
| 2026-05-08 07:02 | 41.03640 | -70.01410 | 38846 ft | 576 kts | 83° |
| 2026-05-08 07:03 | 41.06228 | -69.80627 | 38838 ft | 576 kts | 79° |
| 2026-05-08 07:03 | 41.07988 | -69.73810 | 38877 ft | 581 kts | 63° |
| 2026-05-08 07:03 | 41.13916 | -69.62867 | 38854 ft | 579 kts | 48° |
| 2026-05-08 07:04 | 41.23853 | -69.46039 | 38840 ft | 579 kts | 50° |
| 2026-05-08 07:04 | 41.33793 | -69.29155 | 38854 ft | 580 kts | 50° |
| 2026-05-08 07:05 | 41.43697 | -69.12246 | 38831 ft | 579 kts | 51° |
| 2026-05-08 07:05 | 41.53598 | -68.95241 | 38839 ft | 579 kts | 51° |
| 2026-05-08 07:06 | 41.63376 | -68.78353 | 38859 ft | 579 kts | 52° |
| 2026-05-08 07:06 | 41.73212 | -68.61265 | 38834 ft | 579 kts | 52° |
| 2026-05-08 07:07 | 41.83018 | -68.44131 | 38810 ft | 578 kts | 52° |
| 2026-05-08 07:07 | 41.91131 | -68.29882 | 38810 ft | 578 kts | 52° |
| 2026-05-08 07:08 | 42.00885 | -68.12660 | 38800 ft | 577 kts | 53° |
| 2026-05-08 07:08 | 42.10596 | -67.95416 | 38817 ft | 579 kts | 53° |
| 2026-05-08 07:09 | 42.20302 | -67.78082 | 38811 ft | 578 kts | 53° |
| 2026-05-08 07:09 | 42.29960 | -67.60734 | 38801 ft | 578 kts | 53° |
| 2026-05-08 07:10 | 42.39605 | -67.43310 | 38802 ft | 578 kts | 54° |
| 2026-05-08 07:10 | 42.49144 | -67.25975 | 38793 ft | 577 kts | 54° |
| 2026-05-08 07:11 | 42.65536 | -66.96135 | 38788 ft | 577 kts | 51° |
| 2026-05-08 07:11 | 42.85558 | -66.62011 | 38756 ft | 575 kts | 52° |
| 2026-05-08 07:12 | 43.05407 | -66.27688 | 38774 ft | 576 kts | 53° |
| 2026-05-08 07:12 | 43.25238 | -65.92974 | 38732 ft | 576 kts | 53° |
| 2026-05-08 07:13 | 43.44849 | -65.58240 | 38740 ft | 576 kts | 53° |
| 2026-05-08 07:13 | 43.64287 | -65.23401 | 38734 ft | 576 kts | 54° |
| 2026-05-08 07:14 | 43.83658 | -64.88265 | 38722 ft | 573 kts | 54° |
| 2026-05-08 07:14 | 44.02886 | -64.52965 | 38714 ft | 573 kts | 54° |
| 2026-05-08 07:15 | 44.22036 | -64.17377 | 38691 ft | 572 kts | 55° |
| 2026-05-08 07:15 | 44.41084 | -63.81540 | 38695 ft | 575 kts | 56° |
| 2026-05-08 07:16 | 44.60083 | -63.45347 | 38693 ft | 577 kts | 56° |
| 2026-05-08 07:16 | 44.78779 | -63.09282 | 38688 ft | 575 kts | 56° |
| 2026-05-08 07:17 | 44.97512 | -62.72689 | 38697 ft | 577 kts | 57° |
| 2026-05-08 07:17 | 45.16212 | -62.35684 | 38675 ft | 577 kts | 57° |
| 2026-05-08 07:18 | 45.34779 | -61.98463 | 38682 ft | 578 kts | 58° |
| 2026-05-08 07:18 | 45.53232 | -61.60983 | 38669 ft | 578 kts | 58° |
| 2026-05-08 07:19 | 45.71554 | -61.23273 | 38671 ft | 578 kts | 59° |
| 2026-05-08 07:19 | 45.89649 | -60.85531 | 38662 ft | 578 kts | 60° |
| 2026-05-08 07:20 | 46.07762 | -60.47238 | 38659 ft | 579 kts | 60° |
| 2026-05-08 07:20 | 46.25670 | -60.08856 | 38675 ft | 580 kts | 60° |
| 2026-05-08 07:21 | 46.43579 | -59.69942 | 38673 ft | 580 kts | 61° |
| 2026-05-08 07:21 | 46.61329 | -59.30824 | 38674 ft | 580 kts | 60° |
| 2026-05-08 07:22 | 46.78967 | -58.91408 | 38672 ft | 580 kts | 60° |
| 2026-05-08 07:22 | 46.96494 | -58.51675 | 38666 ft | 583 kts | 60° |
| 2026-05-08 07:23 | 47.13940 | -58.11542 | 38662 ft | 584 kts | 60° |
| 2026-05-08 07:23 | 47.31269 | -57.71093 | 38665 ft | 584 kts | 60° |
| 2026-05-08 07:24 | 47.48423 | -57.30459 | 38675 ft | 580 kts | 60° |
| 2026-05-08 07:24 | 47.65346 | -56.89763 | 38668 ft | 580 kts | 60° |
| 2026-05-08 07:25 | 47.81988 | -56.49141 | 38637 ft | 577 kts | 59° |
| 2026-05-08 07:26 | 48.06700 | -55.87671 | 38645 ft | 576 kts | 60° |
| 2026-05-08 07:26 | 48.23005 | -55.46327 | 38658 ft | 575 kts | 60° |
| 2026-05-08 07:27 | 48.39075 | -55.04945 | 38673 ft | 573 kts | 60° |
| 2026-05-08 07:27 | 48.55028 | -54.63214 | 38713 ft | 575 kts | 60° |
| 2026-05-08 07:28 | 48.70846 | -54.21176 | 38722 ft | 572 kts | 60° |
| 2026-05-08 07:28 | 48.86274 | -53.79518 | 38730 ft | 570 kts | 60° |
| 2026-05-08 07:29 | 49.01659 | -53.37306 | 38757 ft | 569 kts | 60° |
| 2026-05-08 07:29 | 49.16832 | -52.94991 | 38779 ft | 564 kts | 60° |
| 2026-05-08 07:30 | 49.31796 | -52.52570 | 38807 ft | 566 kts | 60° |
| 2026-05-08 07:30 | 49.46617 | -52.09856 | 38819 ft | 567 kts | 59° |
| 2026-05-08 07:31 | 49.59023 | -51.65286 | 38858 ft | 565 kts | 67° |
| 2026-05-08 07:31 | 49.70524 | -51.20105 | 38888 ft | 566 kts | 66° |
| 2026-05-08 07:32 | 49.81770 | -50.75028 | 38889 ft | 561 kts | 66° |
| 2026-05-08 07:32 | 49.92847 | -50.29747 | 38916 ft | 561 kts | 66° |
| 2026-05-08 07:33 | 50.03951 | -49.84380 | 38947 ft | 560 kts | 64° |
| 2026-05-08 07:33 | 50.15200 | -49.39086 | 38989 ft | 560 kts | 65° |
| 2026-05-08 07:34 | 50.26185 | -48.93989 | 39013 ft | 555 kts | 65° |
| 2026-05-08 07:34 | 50.36928 | -48.48966 | 39042 ft | 551 kts | 65° |
| 2026-05-08 07:35 | 50.47436 | -48.04012 | 39073 ft | 548 kts | 65° |
| 2026-05-08 07:35 | 50.57681 | -47.59243 | 39109 ft | 541 kts | 65° |
| 2026-05-08 07:36 | 50.67731 | -47.14386 | 39121 ft | 542 kts | 65° |
| 2026-05-08 07:36 | 50.77560 | -46.69563 | 39155 ft | 539 kts | 65° |
| 2026-05-08 07:37 | 50.87127 | -46.24972 | 39161 ft | 534 kts | 65° |
| 2026-05-08 07:37 | 50.96425 | -45.80673 | 39181 ft | 533 kts | 65° |
| 2026-05-08 07:38 | 51.05601 | -45.35975 | 39207 ft | 529 kts | 65° |
| 2026-05-08 07:38 | 51.14521 | -44.91515 | 39222 ft | 527 kts | 65° |
| 2026-05-08 07:39 | 51.23272 | -44.46902 | 39226 ft | 525 kts | 66° |
| 2026-05-08 07:39 | 51.31777 | -44.02513 | 39249 ft | 521 kts | 67° |
| 2026-05-08 07:40 | 51.40105 | -43.58004 | 39263 ft | 521 kts | 68° |
| 2026-05-08 07:40 | 51.48189 | -43.13741 | 39278 ft | 516 kts | 70° |
| 2026-05-08 07:41 | 51.56126 | -42.69225 | 39296 ft | 518 kts | 70° |
| 2026-05-08 07:41 | 51.63884 | -42.24605 | 39300 ft | 517 kts | 71° |
| 2026-05-08 07:42 | 51.71454 | -41.79945 | 39309 ft | 514 kts | 71° |
| 2026-05-08 07:42 | 51.78788 | -41.35544 | 39317 ft | 511 kts | 71° |
| 2026-05-08 07:43 | 51.85911 | -40.91268 | 39312 ft | 508 kts | 71° |
| 2026-05-08 07:43 | 51.92808 | -40.47236 | 39329 ft | 508 kts | 72° |
| 2026-05-08 07:44 | 51.99591 | -40.02739 | 39343 ft | 508 kts | 72° |
| 2026-05-08 07:44 | 52.06028 | -39.57927 | 39351 ft | 512 kts | 72° |
| 2026-05-08 07:45 | 52.12295 | -39.12924 | 39353 ft | 508 kts | 73° |
| 2026-05-08 07:45 | 52.18370 | -38.67925 | 39371 ft | 506 kts | 73° |
| 2026-05-08 07:46 | 52.24244 | -38.23052 | 39382 ft | 506 kts | 73° |
| 2026-05-08 07:46 | 52.29951 | -37.78024 | 39391 ft | 505 kts | 74° |
| 2026-05-08 07:47 | 52.35451 | -37.33167 | 39400 ft | 505 kts | 74° |
| 2026-05-08 07:47 | 52.40788 | -36.88133 | 39395 ft | 504 kts | 74° |
| 2026-05-08 07:48 | 52.45959 | -36.42959 | 39410 ft | 503 kts | 75° |
| 2026-05-08 07:48 | 52.50942 | -35.97824 | 39420 ft | 501 kts | 75° |
| 2026-05-08 07:49 | 52.55738 | -35.52713 | 39414 ft | 498 kts | 75° |
| 2026-05-08 07:49 | 52.60341 | -35.07732 | 39435 ft | 500 kts | 75° |
| 2026-05-08 07:50 | 52.64757 | -34.62824 | 39441 ft | 500 kts | 75° |
| 2026-05-08 07:50 | 52.69043 | -34.17391 | 39444 ft | 502 kts | 75° |
| 2026-05-08 07:51 | 52.73169 | -33.71717 | 39446 ft | 503 kts | 75° |
| 2026-05-08 07:51 | 52.77098 | -33.26222 | 39428 ft | 500 kts | 76° |
| 2026-05-08 07:52 | 52.80847 | -32.80670 | 39445 ft | 497 kts | 76° |
| 2026-05-08 07:52 | 52.84403 | -32.35324 | 39438 ft | 498 kts | 76° |
| 2026-05-08 07:53 | 52.87790 | -31.89845 | 39465 ft | 498 kts | 77° |
| 2026-05-08 07:53 | 52.90994 | -31.44411 | 39439 ft | 496 kts | 77° |
| 2026-05-08 07:54 | 52.94010 | -30.99124 | 39433 ft | 493 kts | 77° |
| 2026-05-08 07:54 | 52.96852 | -30.53838 | 39419 ft | 493 kts | 78° |
| 2026-05-08 07:55 | 52.99517 | -30.08548 | 39416 ft | 493 kts | 78° |
| 2026-05-08 07:55 | 53.01485 | -29.63352 | 39405 ft | 494 kts | 80° |
| 2026-05-08 07:56 | 53.03170 | -29.17901 | 39391 ft | 493 kts | 80° |
| 2026-05-08 07:56 | 53.04677 | -28.72449 | 39385 ft | 493 kts | 80° |
| 2026-05-08 07:57 | 53.05801 | -28.34571 | 39373 ft | 493 kts | 81° |
| 2026-05-08 07:57 | 53.06994 | -27.88937 | 39359 ft | 494 kts | 81° |
| 2026-05-08 07:58 | 53.08017 | -27.43178 | 39353 ft | 496 kts | 82° |
| 2026-05-08 07:58 | 53.08864 | -26.97259 | 39341 ft | 497 kts | 82° |
| 2026-05-08 07:59 | 53.09536 | -26.51306 | 39341 ft | 497 kts | 83° |
| 2026-05-08 07:59 | 53.10032 | -26.05173 | 39327 ft | 498 kts | 83° |
| 2026-05-08 08:00 | 53.10347 | -25.59313 | 39314 ft | 499 kts | 84° |
| 2026-05-08 08:00 | 53.10488 | -25.12931 | 39299 ft | 502 kts | 85° |
| 2026-05-08 08:01 | 53.10448 | -24.66350 | 39319 ft | 502 kts | 85° |
| 2026-05-08 08:01 | 53.10225 | -24.19807 | 39278 ft | 503 kts | 86° |
| 2026-05-08 08:02 | 53.09822 | -23.73249 | 39272 ft | 503 kts | 87° |
| 2026-05-08 08:02 | 53.09235 | -23.26582 | 39259 ft | 503 kts | 88° |
| 2026-05-08 08:03 | 53.08471 | -22.80282 | 39236 ft | 504 kts | 88° |
| 2026-05-08 08:03 | 53.07520 | -22.33609 | 39236 ft | 506 kts | 89° |
| 2026-05-08 08:04 | 53.06381 | -21.86773 | 39225 ft | 506 kts | 90° |
| 2026-05-08 08:04 | 53.05052 | -21.39763 | 39202 ft | 509 kts | 91° |
| 2026-05-08 08:05 | 53.03546 | -20.92987 | 39194 ft | 510 kts | 91° |
| 2026-05-08 08:05 | 53.01843 | -20.45920 | 39192 ft | 512 kts | 91° |
| 2026-05-08 08:06 | 52.99821 | -19.98678 | 39200 ft | 514 kts | 101° |
| 2026-05-08 08:06 | 52.91693 | -19.53211 | 39168 ft | 514 kts | 105° |
| 2026-05-08 08:07 | 52.83493 | -19.07954 | 39150 ft | 513 kts | 107° |
| 2026-05-08 08:07 | 52.75112 | -18.62892 | 39132 ft | 512 kts | 108° |
| 2026-05-08 08:08 | 52.66528 | -18.17864 | 39130 ft | 515 kts | 108° |
| 2026-05-08 08:08 | 52.57854 | -17.73416 | 39112 ft | 513 kts | 109° |
| 2026-05-08 08:09 | 52.49885 | -17.33458 | 39102 ft | 510 kts | 109° |
| 2026-05-08 08:09 | 52.45382 | -17.11235 | 39218 ft | 515 kts | 110° |
| 2026-05-08 08:09 | 52.43095 | -17.00051 | 39537 ft | 517 kts | 110° |
| 2026-05-08 08:10 | 52.40807 | -16.88913 | 39891 ft | 517 kts | 110° |
| 2026-05-08 08:10 | 52.38498 | -16.77746 | 40250 ft | 517 kts | 110° |
| 2026-05-08 08:10 | 52.36180 | -16.66586 | 40580 ft | 518 kts | 111° |
| 2026-05-08 08:10 | 52.33852 | -16.55453 | 40926 ft | 518 kts | 111° |
| 2026-05-08 08:11 | 52.31504 | -16.44278 | 41085 ft | 521 kts | 111° |
| 2026-05-08 08:11 | 52.26794 | -16.22056 | 41079 ft | 518 kts | 111° |
| 2026-05-08 08:12 | 52.22053 | -15.99927 | 41071 ft | 517 kts | 111° |
| 2026-05-08 08:12 | 52.14548 | -15.65373 | 41067 ft | 516 kts | 111° |
| 2026-05-08 08:13 | 52.04823 | -15.21444 | 41054 ft | 515 kts | 112° |
| 2026-05-08 08:13 | 52.00151 | -14.99526 | 41093 ft | 517 kts | 101° |
| 2026-05-08 08:13 | 52.00182 | -14.76097 | 41044 ft | 520 kts | 92° |
| 2026-05-08 08:14 | 52.00105 | -14.29082 | 41053 ft | 520 kts | 92° |
| 2026-05-08 08:14 | 51.96721 | -13.83317 | 41054 ft | 513 kts | 111° |
| 2026-05-08 08:15 | 51.88394 | -13.40481 | 41035 ft | 513 kts | 111° |
| 2026-05-08 08:15 | 51.79583 | -12.96584 | 41032 ft | 513 kts | 111° |
| 2026-05-08 08:16 | 51.70609 | -12.52826 | 41028 ft | 514 kts | 111° |
| 2026-05-08 08:16 | 51.61481 | -12.09269 | 41023 ft | 513 kts | 111° |
| 2026-05-08 08:17 | 51.52190 | -11.65876 | 41019 ft | 513 kts | 112° |
| 2026-05-08 08:17 | 51.42832 | -11.23081 | 41018 ft | 511 kts | 112° |
| 2026-05-08 08:18 | 51.33212 | -10.79985 | 41016 ft | 511 kts | 112° |
| 2026-05-08 08:18 | 51.23559 | -10.37615 | 41019 ft | 510 kts | 113° |
| 2026-05-08 08:19 | 51.13705 | -9.95213 | 41026 ft | 508 kts | 113° |
| 2026-05-08 08:19 | 51.03749 | -9.53210 | 41028 ft | 507 kts | 114° |
| 2026-05-08 08:20 | 50.93661 | -9.11457 | 41020 ft | 504 kts | 114° |